Spring Valley, Illinois
Current Conditions -  °F | °C
As of 2:35 PM on Monday 26 Jan 2015 (Local Time) from KVYS Reporting Station
Overcast Overcast  
Wind Chill: 19°   Ceiling: 2700
Heat Index: 27°   Visibility: 10mi
Dew Point: 24°   Wind: 8mph
Humidity: 89%   Direction: 150°SSE
Pressure: 29.86"   Gusts: NA
Location:  41.33°N, 89.2°W
Report Text: KVYS 262035Z AUTO 15007KT 10SM SCT008 SCT017 OVC027 M03/M04 A2986 RMK AO2 T10261042
Loading
Personal Weather Stations






























Interactive Weather Map New forecast layout! Learn more

10-Day Weather Forecast

Advertisements
Track Severe Weather on mobile